Time;durP1;ratioP1;P1;durP2;ratioP2;P2;SDS_P1;SDS_P2;PMS_P1;PMS_P2;Temp;Humidity;BMP_temperature;BMP_pressure;BME280_temperature;BME280_humidity;BME280_pressure;Samples;Min_cycle;Max_cycle;Signal;HPM_P1;HPM_P2
2021/08/24 00:02:52;;;;;;;2.47;1.23;;;;;;;13.71;100.00;102411.63;6223754;28;20054;-76
2021/08/24 00:05:53;;;;;;;1.58;1.33;;;;;;;13.74;100.00;102417.72;6223077;28;20098;-76
2021/08/24 00:08:54;;;;;;;2.00;1.15;;;;;;;13.78;100.00;102416.69;6223816;28;20052;-76
2021/08/24 00:11:56;;;;;;;1.85;1.38;;;;;;;13.74;100.00;102415.94;6223335;28;20417;-75
2021/08/24 00:14:57;;;;;;;1.88;1.10;;;;;;;13.79;100.00;102413.13;6223094;28;20075;-76
2021/08/24 00:18:01;;;;;;;1.52;1.00;;;;;;;13.80;100.00;102414.84;6223377;28;20049;-76
2021/08/24 00:21:04;;;;;;;1.65;1.08;;;;;;;13.80;100.00;102420.13;6223444;28;20532;-76
2021/08/24 00:24:06;;;;;;;1.67;1.00;;;;;;;13.79;100.00;102418.41;6222995;28;20508;-76
2021/08/24 00:27:08;;;;;;;1.75;1.10;;;;;;;13.75;100.00;102414.16;6223248;28;20398;-76
2021/08/24 00:30:10;;;;;;;1.55;1.02;;;;;;;13.76;100.00;102413.22;6223426;28;20077;-75
2021/08/24 00:33:14;;;;;;;2.17;1.50;;;;;;;13.70;100.00;102412.56;6223245;28;20065;-76
2021/08/24 00:36:19;;;;;;;2.05;1.25;;;;;;;13.68;100.00;102414.41;6222802;28;20058;-76
2021/08/24 00:39:20;;;;;;;1.20;1.10;;;;;;;13.66;100.00;102413.59;6222816;28;20042;-76
2021/08/24 00:42:22;;;;;;;2.80;1.63;;;;;;;13.63;100.00;102415.53;6222952;28;20057;-76
2021/08/24 00:45:23;;;;;;;2.53;1.35;;;;;;;13.61;100.00;102420.00;6222546;28;20054;-76
2021/08/24 00:48:30;;;;;;;2.47;0.90;;;;;;;13.58;100.00;102414.81;6222534;28;20042;-76
2021/08/24 00:51:35;;;;;;;1.80;1.00;;;;;;;13.57;100.00;102419.25;6222905;28;20052;-75
2021/08/24 00:54:37;;;;;;;1.48;1.13;;;;;;;13.57;100.00;102428.94;6243318;23;20410;-78
2021/08/24 00:57:39;;;;;;;2.30;1.40;;;;;;;13.53;100.00;102430.00;6223292;28;20045;-79
2021/08/24 01:00:41;;;;;;;1.48;1.35;;;;;;;13.49;100.00;102437.19;6223419;28;20060;-78
2021/08/24 01:03:48;;;;;;;2.35;1.38;;;;;;;13.43;100.00;102440.91;6217031;28;20061;-78
2021/08/24 01:06:52;;;;;;;1.55;1.13;;;;;;;13.42;100.00;102440.97;6198968;28;20073;-78
2021/08/24 01:10:02;;;;;;;1.52;1.13;;;;;;;13.38;100.00;102444.66;6199533;28;20517;-78
2021/08/24 01:13:08;;;;;;;4.72;1.75;;;;;;;13.33;100.00;102441.31;6198912;28;20050;-78
2021/08/24 01:16:19;;;;;;;1.95;1.40;;;;;;;13.26;100.00;102439.81;6199162;28;20054;-78
2021/08/24 01:19:46;;;;;;;1.88;1.30;;;;;;;13.18;100.00;102443.59;6199135;28;20087;-79
2021/08/24 01:23:06;;;;;;;2.15;1.25;;;;;;;13.20;100.00;102451.44;6199716;28;20058;-78
2021/08/24 01:26:15;;;;;;;2.30;1.52;;;;;;;13.16;100.00;102455.09;6198720;28;20490;-78
2021/08/24 01:29:57;;;;;;;4.63;1.40;;;;;;;13.12;100.00;102450.84;6203560;28;20521;-78
2021/08/24 01:33:11;;;;;;;3.15;1.52;;;;;;;13.08;100.00;102447.50;6204457;28;20050;-78
2021/08/24 01:36:21;;;;;;;2.58;1.40;;;;;;;13.03;100.00;102454.69;6203887;28;20065;-78
2021/08/24 01:39:28;;;;;;;1.83;1.30;;;;;;;12.98;100.00;102450.50;6204207;28;20061;-78
2021/08/24 01:42:32;;;;;;;1.42;1.25;;;;;;;12.99;100.00;102446.94;6203838;28;20065;-78
2021/08/24 01:45:40;;;;;;;1.48;1.25;;;;;;;13.04;100.00;102452.94;6203251;28;20057;-79
2021/08/24 01:48:47;;;;;;;1.75;1.30;;;;;;;13.05;100.00;102452.03;6203580;28;20046;-79
2021/08/24 01:51:54;;;;;;;3.38;1.70;;;;;;;13.03;100.00;102459.09;6203615;28;20057;-78
2021/08/24 01:54:59;;;;;;;1.85;1.17;;;;;;;13.04;100.00;102455.59;6203137;28;20054;-78
2021/08/24 01:58:04;;;;;;;2.10;1.27;;;;;;;13.06;100.00;102444.03;6203994;28;20050;-79
2021/08/24 02:01:10;;;;;;;4.53;1.50;;;;;;;13.07;100.00;102455.44;6203346;28;20062;-79
2021/08/24 02:04:18;;;;;;;1.90;1.42;;;;;;;13.03;100.00;102453.84;6203046;28;20054;-79
2021/08/24 02:07:22;;;;;;;3.72;1.63;;;;;;;12.98;100.00;102454.00;6203258;28;20147;-79
2021/08/24 02:10:26;;;;;;;2.85;1.55;;;;;;;12.97;100.00;102448.78;6203194;28;20518;-79
2021/08/24 02:13:32;;;;;;;2.05;1.58;;;;;;;12.94;100.00;102457.66;6203011;28;20046;-78
2021/08/24 02:16:34;;;;;;;2.45;1.45;;;;;;;12.91;100.00;102452.50;6202893;28;20061;-79
2021/08/24 02:19:40;;;;;;;2.55;1.50;;;;;;;12.86;100.00;102457.09;6203190;28;20512;-79
2021/08/24 02:22:47;;;;;;;2.38;1.50;;;;;;;12.82;100.00;102460.75;6203272;28;20050;-78
2021/08/24 02:25:51;;;;;;;2.15;1.38;;;;;;;12.78;100.00;102459.13;6202638;28;20050;-79
2021/08/24 02:28:56;;;;;;;2.65;1.50;;;;;;;12.71;100.00;102463.75;6203040;28;20046;-79
2021/08/24 02:32:02;;;;;;;2.05;1.58;;;;;;;12.66;100.00;102463.91;6202895;28;20049;-79
2021/08/24 02:35:13;;;;;;;2.45;1.38;;;;;;;12.63;100.00;102465.81;6202579;28;20043;-79
2021/08/24 02:38:23;;;;;;;1.95;1.10;;;;;;;12.59;100.00;102466.84;6202979;28;20054;-78
2021/08/24 02:41:29;;;;;;;;;;;;;;;12.57;100.00;102466.00;6202888;28;20057;-79
2021/08/24 02:44:38;;;;;;;3.70;1.40;;;;;;;12.54;100.00;102464.34;6202917;28;19925;-79
2021/08/24 02:47:40;;;;;;;2.45;1.60;;;;;;;12.51;100.00;102468.88;6202469;28;20529;-78
2021/08/24 02:50:42;;;;;;;2.30;1.67;;;;;;;12.46;100.00;102465.53;6201851;28;20042;-79
2021/08/24 02:53:53;;;;;;;2.53;1.65;;;;;;;12.42;100.00;102467.41;6212151;28;20046;-79
2021/08/24 02:56:55;;;;;;;2.22;1.45;;;;;;;12.36;100.00;102471.09;6241920;28;20041;-78
2021/08/24 02:59:57;;;;;;;2.22;1.27;;;;;;;12.36;100.00;102471.09;6236856;28;20128;-78
2021/08/24 03:02:58;;;;;;;1.83;1.20;;;;;;;12.34;100.00;102475.53;6226803;28;20049;-79
2021/08/24 03:05:59;;;;;;;1.90;1.70;;;;;;;12.31;100.00;102480.06;6226291;28;20053;-79
2021/08/24 03:09:03;;;;;;;2.50;1.65;;;;;;;12.27;100.00;102481.94;6226348;28;20132;-79
2021/08/24 03:12:25;;;;;;;1.75;1.55;;;;;;;12.21;100.00;102481.28;6234237;28;20057;-79
2021/08/24 03:15:31;;;;;;;2.13;1.35;;;;;;;12.14;100.00;102470.94;6245590;28;20509;-79
2021/08/24 03:18:37;;;;;;;1.73;1.50;;;;;;;12.11;100.00;102468.38;6250583;28;20045;-78
2021/08/24 03:21:41;;;;;;;4.53;1.80;;;;;;;12.11;100.00;102471.03;6226724;28;20492;-78
2021/08/24 03:24:44;;;;;;;1.88;1.42;;;;;;;12.10;100.00;102468.44;6225662;28;20050;-78
2021/08/24 03:27:48;;;;;;;2.28;1.45;;;;;;;12.09;100.00;102470.22;6225751;28;20054;-79
2021/08/24 03:30:50;;;;;;;2.90;1.40;;;;;;;12.08;100.00;102475.53;6226009;28;20493;-78
2021/08/24 03:33:52;;;;;;;2.97;1.50;;;;;;;12.02;100.00;102479.22;6225309;28;20045;-79
2021/08/24 03:36:53;;;;;;;2.63;1.50;;;;;;;11.96;100.00;102483.84;6209231;28;20046;-79
2021/08/24 03:39:56;;;;;;;1.70;1.55;;;;;;;11.91;100.00;102482.22;6232769;28;20037;-79
2021/08/24 03:42:58;;;;;;;3.83;1.50;;;;;;;11.90;100.00;102483.13;6210029;28;20050;-79
2021/08/24 03:45:59;;;;;;;3.15;1.30;;;;;;;11.88;100.00;102476.16;6217055;28;20057;-79
2021/08/24 03:49:01;;;;;;;1.67;1.17;;;;;;;11.87;100.00;102490.25;6225476;28;20543;-79
2021/08/24 03:52:02;;;;;;;3.15;1.50;;;;;;;11.86;100.00;102489.41;6224891;28;20057;-79
2021/08/24 03:55:07;;;;;;;1.60;1.42;;;;;;;11.84;100.00;102501.72;6225497;28;20053;-79
2021/08/24 03:58:08;;;;;;;2.80;1.40;;;;;;;11.83;100.00;102505.28;6216605;28;20490;-78
2021/08/24 04:01:15;;;;;;;2.03;1.50;;;;;;;11.79;100.00;102503.63;6212391;28;20053;-79
2021/08/24 04:04:17;;;;;;;3.17;1.65;;;;;;;11.77;100.00;102510.72;6219146;28;20050;-79
2021/08/24 04:07:18;;;;;;;2.30;1.50;;;;;;;11.72;100.00;102507.34;6225143;28;20073;-79
2021/08/24 04:10:21;;;;;;;2.97;1.63;;;;;;;11.70;100.00;102517.06;6225548;28;20485;-79
2021/08/24 04:13:23;;;;;;;1.70;1.30;;;;;;;11.70;100.00;102522.31;6225082;28;20057;-79
2021/08/24 04:16:24;;;;;;;2.85;1.58;;;;;;;11.71;100.00;102523.19;6225196;28;20057;-79
2021/08/24 04:19:26;;;;;;;4.28;1.90;;;;;;;11.71;100.00;102531.94;6225260;28;20055;-79
2021/08/24 04:22:27;;;;;;;2.20;1.63;;;;;;;11.69;100.00;102541.69;6224905;28;20053;-77
2021/08/24 04:25:30;;;;;;;5.03;1.52;;;;;;;11.65;100.00;102543.53;6224659;28;20492;-79
2021/08/24 04:28:31;;;;;;;2.25;1.60;;;;;;;11.58;100.00;102544.63;6224321;28;20086;-79
2021/08/24 04:31:36;;;;;;;2.72;1.77;;;;;;;11.56;100.00;102545.56;6225336;28;20065;-77
2021/08/24 04:34:38;;;;;;;4.63;1.77;;;;;;;11.51;100.00;102547.47;6223140;28;20188;-77
2021/08/24 04:37:39;;;;;;;2.03;1.50;;;;;;;11.46;100.00;102544.97;6224808;28;20049;-79
2021/08/24 04:40:42;;;;;;;5.43;1.88;;;;;;;11.51;100.00;102550.09;6225524;28;20508;-79
2021/08/24 04:43:43;;;;;;;2.22;1.40;;;;;;;11.53;100.00;102551.78;6224616;28;20049;-79
2021/08/24 04:46:45;;;;;;;2.63;1.40;;;;;;;11.55;100.00;102554.38;6224473;28;20053;-79
2021/08/24 04:49:46;;;;;;;2.83;1.75;;;;;;;11.56;100.00;102556.97;6224314;28;20057;-79
2021/08/24 04:52:47;;;;;;;6.05;1.65;;;;;;;11.57;100.00;102555.19;6224623;28;20428;-79
2021/08/24 04:55:50;;;;;;;2.00;1.60;;;;;;;11.59;100.00;102558.66;6223949;28;20441;-79
2021/08/24 04:58:51;;;;;;;2.78;1.90;;;;;;;11.58;100.00;102555.16;6223912;28;20501;-79
2021/08/24 05:01:53;;;;;;;3.72;1.80;;;;;;;11.61;100.00;102559.47;6223250;28;20057;-79
2021/08/24 05:04:54;;;;;;;2.17;1.38;;;;;;;11.65;100.00;102559.34;6223681;28;20057;-77
2021/08/24 05:07:56;;;;;;;3.08;1.63;;;;;;;11.66;100.00;102568.94;6223792;28;20050;-79
2021/08/24 05:10:58;;;;;;;2.28;1.70;;;;;;;11.71;100.00;102567.97;6223741;28;20515;-79
2021/08/24 05:14:00;;;;;;;1.90;1.40;;;;;;;11.72;100.00;102570.56;6223121;28;20496;-79
2021/08/24 05:17:01;;;;;;;2.53;1.67;;;;;;;11.74;100.00;102573.16;6224217;28;20060;-79
2021/08/24 05:20:03;;;;;;;1.73;1.48;;;;;;;11.75;100.00;102566.97;6223581;28;20053;-79
2021/08/24 05:23:04;;;;;;;2.40;1.70;;;;;;;11.77;100.00;102562.53;6223583;28;20420;-79
2021/08/24 05:26:09;;;;;;;1.75;1.20;;;;;;;11.80;100.00;102565.06;6223085;28;20052;-79
2021/08/24 05:29:12;;;;;;;2.25;1.45;;;;;;;11.86;100.00;102573.69;6223396;28;20485;-79
2021/08/24 05:32:13;;;;;;;14.05;1.55;;;;;;;11.88;100.00;102579.78;6223353;28;20409;-79
2021/08/24 05:35:15;;;;;;;1.98;1.60;;;;;;;11.87;100.00;102572.78;6223035;28;20050;-79
2021/08/24 05:38:16;;;;;;;2.95;1.60;;;;;;;11.84;100.00;102582.53;6225414;28;20056;-79
2021/08/24 05:41:19;;;;;;;1.90;1.30;;;;;;;11.80;100.00;102584.34;6226899;28;20052;-79
2021/08/24 05:44:20;;;;;;;3.42;1.63;;;;;;;11.86;100.00;102589.50;6239076;28;20118;-79
2021/08/24 05:47:21;;;;;;;2.70;1.45;;;;;;;11.97;100.00;102586.53;6249029;28;20052;-78
2021/08/24 05:50:24;;;;;;;2.63;1.50;;;;;;;11.97;100.00;102586.53;6253810;28;20049;-79
2021/08/24 05:53:26;;;;;;;2.05;1.20;;;;;;;12.00;100.00;102586.47;6248570;28;20050;-78
2021/08/24 05:56:29;;;;;;;1.98;1.25;;;;;;;12.01;100.00;102593.44;6248173;28;20057;-79
2021/08/24 05:59:30;;;;;;;1.92;1.55;;;;;;;12.04;100.00;102579.34;6236430;28;20128;-79
2021/08/24 06:02:31;;;;;;;4.88;1.88;;;;;;;12.14;100.00;102584.25;6248344;28;20057;-79
2021/08/24 06:05:37;;;;;;;7.15;1.70;;;;;;;12.07;100.00;102582.72;6248070;28;20507;-79
2021/08/24 06:08:39;;;;;;;2.08;1.42;;;;;;;12.11;100.00;102591.41;6248605;28;20053;-79
2021/08/24 06:11:45;;;;;;;2.40;1.45;;;;;;;12.08;100.00;102584.47;6248329;28;20452;-79
2021/08/24 06:14:46;;;;;;;2.33;1.60;;;;;;;12.12;100.00;102601.03;6252413;28;20131;-79
2021/08/24 06:17:48;;;;;;;3.13;1.55;;;;;;;12.18;100.00;102592.94;6252705;28;20061;-79
2021/08/24 06:20:49;;;;;;;2.35;1.55;;;;;;;12.15;100.00;102591.25;6252811;28;20128;-79
2021/08/24 06:23:51;;;;;;;3.00;1.33;;;;;;;12.21;100.00;102595.47;6253611;28;20424;-77
2021/08/24 06:26:54;;;;;;;1.10;0.93;;;;;;;12.26;100.00;102605.88;6252888;28;20076;-79
2021/08/24 06:29:55;;;;;;;1.83;1.13;;;;;;;12.34;100.00;102607.38;6253458;28;20053;-79
2021/08/24 06:32:58;;;;;;;1.80;1.13;;;;;;;12.38;100.00;102606.38;6252455;28;20054;-79
2021/08/24 06:36:00;;;;;;;2.00;0.75;;;;;;;12.41;100.00;102602.78;6252735;28;20056;-79
2021/08/24 06:39:01;;;;;;;1.67;1.02;;;;;;;12.51;100.00;102611.25;6252319;28;20057;-79
2021/08/24 06:42:07;;;;;;;1.02;0.93;;;;;;;12.51;100.00;102598.94;6250598;28;20060;-79
2021/08/24 06:45:12;;;;;;;1.50;1.10;;;;;;;12.56;100.00;102604.94;6212923;28;20066;-79
2021/08/24 06:48:13;;;;;;;1.92;1.40;;;;;;;12.64;100.00;102607.34;6220549;28;20077;-79
2021/08/24 06:51:15;;;;;;;2.17;1.02;;;;;;;12.68;100.00;102609.81;6227701;28;20046;-79
2021/08/24 06:54:16;;;;;;;1.30;0.77;;;;;;;12.74;100.00;102613.16;6227375;28;20050;-78
2021/08/24 06:57:19;;;;;;;1.88;1.10;;;;;;;12.82;100.00;102613.78;6235061;23;20052;-76
2021/08/24 07:00:23;;;;;;;0.80;0.80;;;;;;;12.92;100.00;102612.56;6211847;28;20405;-76
2021/08/24 07:03:24;;;;;;;1.50;0.90;;;;;;;12.97;100.00;102617.69;6211175;28;20053;-76
2021/08/24 07:06:25;;;;;;;2.30;1.10;;;;;;;13.04;100.00;102617.44;6215082;28;20516;-74
2021/08/24 07:09:27;;;;;;;1.77;1.10;;;;;;;13.17;100.00;102618.75;6223402;28;20057;-76
2021/08/24 07:12:29;;;;;;;0.85;0.68;;;;;;;13.24;100.00;102618.56;6223295;28;20500;-76
2021/08/24 07:15:32;;;;;;;3.05;1.27;;;;;;;13.34;100.00;102620.81;6223194;28;20046;-76
2021/08/24 07:18:35;;;;;;;2.13;1.10;;;;;;;13.37;100.00;102614.59;6223140;28;20054;-76
2021/08/24 07:21:36;;;;;;;0.55;0.47;;;;;;;13.42;100.00;102608.22;6220613;28;20049;-74
2021/08/24 07:24:37;;;;;;;1.58;0.70;;;;;;;13.47;100.00;102608.06;6217559;28;20509;-76
2021/08/24 07:27:40;;;;;;;0.98;0.65;;;;;;;13.57;100.00;102613.88;6224389;28;20425;-74
2021/08/24 07:30:45;;;;;;;1.73;0.70;;;;;;;13.69;100.00;102616.94;6224616;28;20056;-74
2021/08/24 07:33:46;;;;;;;3.13;0.73;;;;;;;13.76;100.00;102619.34;6224107;28;20053;-74
2021/08/24 07:36:48;;;;;;;4.28;0.65;;;;;;;13.80;100.00;102621.81;6224324;28;20675;-74
2021/08/24 07:39:49;;;;;;;1.00;0.70;;;;;;;13.85;100.00;102626.94;6224326;28;20053;-74
2021/08/24 07:42:52;;;;;;;2.78;0.80;;;;;;;13.93;100.00;102628.38;6224016;28;20053;-75
2021/08/24 07:45:53;;;;;;;0.88;0.60;;;;;;;14.01;100.00;102619.31;6223719;28;20493;-74
2021/08/24 07:48:54;;;;;;;0.85;0.32;;;;;;;14.07;100.00;102616.41;6224096;28;20053;-74
2021/08/24 07:51:56;;;;;;;1.90;0.82;;;;;;;14.17;100.00;102617.78;6224049;28;20408;-75
2021/08/24 07:54:57;;;;;;;1.63;0.52;;;;;;;14.24;100.00;102613.13;6223686;28;20050;-76
2021/08/24 07:58:00;;;;;;;1.08;0.70;;;;;;;14.40;100.00;102616.91;6223553;28;20136;-76
2021/08/24 08:01:01;;;;;;;1.50;0.80;;;;;;;14.47;100.00;102621.03;6223983;28;20042;-76
2021/08/24 08:04:02;;;;;;;1.83;0.88;;;;;;;14.57;100.00;102618.91;6212785;28;20062;-76
2021/08/24 08:07:04;;;;;;;1.35;0.50;;;;;;;14.59;100.00;102623.22;6194412;28;20047;-75
2021/08/24 08:10:07;;;;;;;1.35;0.60;;;;;;;14.61;100.00;102623.16;6198860;28;20058;-76
2021/08/24 08:13:10;;;;;;;2.28;0.90;;;;;;;14.67;100.00;102633.47;6197748;28;20054;-75
2021/08/24 08:16:11;;;;;;;3.35;1.20;;;;;;;14.74;100.00;102636.75;6198132;28;20050;-75
2021/08/24 08:19:13;;;;;;;2.15;0.68;;;;;;;14.89;100.00;102638.78;6198633;28;20065;-76
2021/08/24 08:22:14;;;;;;;1.48;0.73;;;;;;;14.92;100.00;102647.44;6198880;28;20042;-76
2021/08/24 08:25:16;;;;;;;2.28;0.77;;;;;;;14.98;100.00;102647.19;6197823;28;20054;-75
2021/08/24 08:28:22;;;;;;;0.43;0.40;;;;;;;15.08;100.00;102658.28;6212754;28;20052;-76
2021/08/24 08:31:25;;;;;;;0.90;0.57;;;;;;;15.18;100.00;102659.63;6220992;28;20042;-76
2021/08/24 08:34:26;;;;;;;1.10;0.85;;;;;;;15.37;98.59;102650.88;6222192;28;20046;-75
2021/08/24 08:37:28;;;;;;;1.60;0.60;;;;;;;15.55;94.66;102659.81;6222574;28;20050;-76
2021/08/24 08:40:38;;;;;;;1.40;0.60;;;;;;;15.80;91.76;102663.13;6222324;28;20049;-76
2021/08/24 08:43:46;;;;;;;1.52;0.45;;;;;;;15.85;92.51;102661.16;6222145;28;20050;-76
2021/08/24 08:46:54;;;;;;;0.85;0.40;;;;;;;15.79;93.34;102669.38;6201990;28;20043;-75
2021/08/24 08:49:59;;;;;;;2.88;1.00;;;;;;;15.68;93.34;102659.25;6198033;28;20054;-75
2021/08/24 08:53:06;;;;;;;1.05;0.70;;;;;;;15.62;92.41;102666.56;6189519;28;20054;-76
2021/08/24 08:56:15;;;;;;;3.95;0.68;;;;;;;15.56;94.65;102662.41;6195949;28;20053;-76
2021/08/24 08:59:25;;;;;;;0.40;0.40;;;;;;;15.53;96.13;102669.63;6197998;28;20510;-76
2021/08/24 09:02:35;;;;;;;1.60;0.50;;;;;;;15.59;96.10;102664.06;6198224;28;20047;-76
2021/08/24 09:05:37;;;;;;;0.40;0.40;;;;;;;15.73;91.08;102664.34;6197223;28;20425;-77
2021/08/24 09:08:40;;;;;;;0.70;0.55;;;;;;;15.80;89.61;102672.88;6193981;28;20096;-76
2021/08/24 09:11:47;;;;;;;1.25;0.55;;;;;;;15.86;90.61;102665.53;6199495;28;20041;-76
2021/08/24 09:14:55;;;;;;;1.45;0.80;;;;;;;15.99;90.35;102657.88;6197284;28;20047;-76
2021/08/24 09:17:56;;;;;;;1.40;0.50;;;;;;;16.04;89.48;102657.69;6197575;28;20050;-76
2021/08/24 09:21:02;;;;;;;1.52;0.65;;;;;;;15.94;90.64;102659.84;6189347;28;20047;-76
2021/08/24 09:24:08;;;;;;;1.35;0.50;;;;;;;15.85;91.07;102653.22;6178207;28;20061;-77
2021/08/24 09:27:15;;;;;;;0.38;0.35;;;;;;;15.81;91.90;102650.75;6197553;28;20066;-76
2021/08/24 09:30:19;;;;;;;0.35;0.30;;;;;;;15.76;91.77;102650.97;6196880;28;20417;-77
2021/08/24 09:33:22;;;;;;;1.17;0.45;;;;;;;15.74;92.61;102652.81;6197888;28;20437;-78
2021/08/24 09:36:23;;;;;;;2.13;0.52;;;;;;;15.71;94.08;102647.63;6213286;28;20437;-76
2021/08/24 09:39:48;;;;;;;0.57;0.50;;;;;;;15.77;94.12;102647.38;6220875;28;20053;-76
2021/08/24 09:42:49;;;;;;;0.38;0.32;;;;;;;15.83;92.76;102639.16;6221462;28;20507;-75
2021/08/24 09:46:01;;;;;;;0.50;0.50;;;;;;;16.03;91.53;102651.47;6220579;28;20050;-75
2021/08/24 09:49:06;;;;;;;0.93;0.40;;;;;;;16.26;89.26;102642.50;6223854;28;20046;-74
2021/08/24 09:52:12;;;;;;;0.90;0.30;;;;;;;16.42;85.98;102639.97;6226365;28;20046;-75
2021/08/24 09:55:19;;;;;;;1.40;0.70;;;;;;;16.57;86.24;102641.00;6203242;28;20058;-75
2021/08/24 09:58:30;;;;;;;0.55;0.45;;;;;;;16.72;87.16;102641.19;6200577;28;20054;-75
2021/08/24 10:01:47;;;;;;;1.85;0.55;;;;;;;16.75;86.00;102642.81;6202295;28;20043;-75
2021/08/24 10:04:49;;;;;;;1.13;0.45;;;;;;;16.66;82.92;102627.28;6200346;28;20521;-75
2021/08/24 10:07:53;;;;;;;1.20;0.57;;;;;;;16.81;83.09;102628.38;6201873;28;20050;-75
2021/08/24 10:11:06;;;;;;;0.43;0.35;;;;;;;16.78;84.57;102620.56;6202066;28;20433;-75
2021/08/24 10:14:13;;;;;;;2.40;1.08;;;;;;;16.85;85.40;102621.97;6201636;28;20062;-75
2021/08/24 10:17:29;;;;;;;0.40;0.40;;;;;;;16.86;82.63;102624.56;6201907;28;20057;-75
2021/08/24 10:20:33;;;;;;;1.35;0.60;;;;;;;16.92;81.28;102613.63;6199167;28;20042;-75
2021/08/24 10:23:39;;;;;;;0.20;0.20;;;;;;;17.11;79.09;102621.50;6201491;28;20053;-74
2021/08/24 10:26:42;;;;;;;1.80;0.60;;;;;;;17.17;76.91;102625.69;6201259;28;20524;-74
2021/08/24 10:29:43;;;;;;;0.77;0.47;;;;;;;17.26;77.31;102622.56;6201535;28;20050;-74
2021/08/24 10:32:55;;;;;;;0.30;0.30;;;;;;;17.38;77.36;102626.34;6201404;28;20047;-74
2021/08/24 10:36:02;;;;;;;0.93;0.43;;;;;;;17.53;76.05;102625.53;6212952;28;20049;-74
2021/08/24 10:39:07;;;;;;;1.35;0.75;;;;;;;17.71;77.33;102623.72;6209669;28;20054;-74
2021/08/24 10:42:19;;;;;;;1.15;0.40;;;;;;;17.84;70.66;102622.16;6219877;28;20042;-74
2021/08/24 10:45:26;;;;;;;0.45;0.30;;;;;;;17.99;70.09;102621.31;6225387;28;20045;-74
2021/08/24 10:48:33;;;;;;;0.40;0.40;;;;;;;18.19;69.32;102614.91;6225809;28;20054;-74
2021/08/24 10:51:46;;;;;;;0.35;0.28;;;;;;;18.35;69.21;102616.69;6225297;28;20046;-74
2021/08/24 10:55:02;;;;;;;1.33;0.60;;;;;;;18.55;64.78;102610.25;6225105;28;20123;-74
2021/08/24 10:58:08;;;;;;;1.65;0.70;;;;;;;18.62;67.89;102611.59;6224973;28;20066;-74
2021/08/24 11:01:18;;;;;;;0.95;0.40;;;;;;;18.68;67.19;102596.13;6206187;28;20046;-75
2021/08/24 11:04:38;;;;;;;1.73;0.65;;;;;;;18.84;67.25;102597.94;6200164;28;20046;-72
2021/08/24 11:07:51;;;;;;;0.65;0.40;;;;;;;18.88;68.02;102599.47;6200570;28;20050;-75
2021/08/24 11:11:01;;;;;;;1.50;0.68;;;;;;;19.10;66.67;102594.59;6200692;28;20490;-73
2021/08/24 11:14:14;;;;;;;0.90;0.60;;;;;;;19.31;67.49;102596.91;6197084;28;20046;-77
2021/08/24 11:17:26;;;;;;;1.23;0.70;;;;;;;19.48;65.06;102586.94;6198045;28;20042;-77
2021/08/24 11:20:40;;;;;;;1.63;0.75;;;;;;;19.46;65.36;102596.81;6198932;28;20053;-76
2021/08/24 11:23:54;;;;;;;1.35;0.70;;;;;;;19.49;62.92;102588.66;6200289;28;20058;-77
2021/08/24 11:27:02;;;;;;;0.77;0.40;;;;;;;19.50;63.60;102593.03;6199969;28;20054;-76
2021/08/24 11:30:10;;;;;;;0.60;0.47;;;;;;;19.76;64.03;102587.94;6176232;28;20058;-76
2021/08/24 11:33:17;;;;;;;1.25;0.70;;;;;;;19.95;60.25;102584.94;6175728;28;20074;-76
2021/08/24 11:36:26;;;;;;;0.70;0.47;;;;;;;20.16;63.89;102591.56;6194527;28;20058;-77
2021/08/24 11:39:35;;;;;;;1.05;0.68;;;;;;;20.21;63.72;102593.94;6199804;28;20413;-76
2021/08/24 11:42:41;;;;;;;1.45;0.60;;;;;;;20.09;60.09;102590.25;6200299;28;20516;-77
2021/08/24 11:45:46;;;;;;;1.42;0.57;;;;;;;19.95;62.70;102588.47;6199178;28;20079;-76
2021/08/24 11:48:53;;;;;;;1.75;0.55;;;;;;;19.97;62.79;102577.69;6199748;28;20422;-76
2021/08/24 11:52:02;;;;;;;0.80;0.63;;;;;;;20.14;61.03;102589.97;6199479;28;20402;-76
2021/08/24 11:55:07;;;;;;;;;;;;;;;20.35;61.81;102587.69;6199980;28;20058;-74
2021/08/24 11:58:15;;;;;;;1.27;0.52;;;;;;;20.74;61.79;102578.91;6199208;28;19921;-76
2021/08/24 12:01:18;;;;;;;1.17;0.43;;;;;;;21.18;57.28;102580.38;6199590;28;20042;-74
2021/08/24 12:04:22;;;;;;;1.65;0.70;;;;;;;21.44;58.58;102568.75;6199074;28;20055;-74
2021/08/24 12:07:33;;;;;;;1.17;0.68;;;;;;;21.41;56.96;102574.31;6199392;28;20054;-74
2021/08/24 12:10:53;;;;;;;1.58;0.60;;;;;;;21.39;56.67;102567.34;6198730;28;20054;-74
2021/08/24 12:13:56;;;;;;;0.85;0.43;;;;;;;21.59;57.42;102572.16;6199093;28;20061;-75
2021/08/24 12:17:03;;;;;;;0.50;0.45;;;;;;;21.38;57.74;102570.97;6198787;28;20061;-74
2021/08/24 12:20:07;;;;;;;1.50;0.65;;;;;;;21.14;55.68;102566.34;6199073;28;20054;-74
2021/08/24 12:23:14;;;;;;;0.88;0.55;;;;;;;20.61;58.42;102570.84;6202582;28;20046;-75
2021/08/24 12:26:24;;;;;;;1.48;0.80;;;;;;;20.18;58.34;102565.63;6208641;28;20046;-75
2021/08/24 12:29:50;;;;;;;1.58;0.52;;;;;;;19.89;56.26;102562.16;6204829;28;20057;-77
2021/08/24 12:33:29;;;;;;;1.65;0.88;;;;;;;19.44;59.79;102572.09;6211639;28;20493;-77
2021/08/24 12:36:54;;;;;;;0.68;0.50;;;;;;;20.08;60.74;102555.66;6216903;28;20061;-76
2021/08/24 12:39:58;;;;;;;0.73;0.65;;;;;;;21.01;58.88;102562.81;6197577;28;20053;-77
2021/08/24 12:43:16;;;;;;;1.40;0.70;;;;;;;21.25;52.67;102563.75;6203550;28;20038;-75
2021/08/24 12:46:33;;;;;;;0.82;0.65;;;;;;;21.37;55.02;102559.44;6197104;28;20520;-75
2021/08/24 12:49:35;;;;;;;1.33;0.63;;;;;;;21.59;50.18;102556.09;6210775;28;20528;-75
2021/08/24 12:52:38;;;;;;;1.67;0.52;;;;;;;21.40;49.91;102555.69;6202161;28;20042;-75
2021/08/24 12:55:42;;;;;;;0.70;0.50;;;;;;;21.13;52.42;102548.59;6212578;28;20045;-75
2021/08/24 12:58:49;;;;;;;1.05;0.68;;;;;;;21.05;50.40;102555.44;6238754;23;20046;-84
2021/08/24 13:02:11;;;;;;;1.20;0.80;;;;;;;21.03;57.42;102552.88;6223095;28;20053;-82
2021/08/24 13:05:23;;;;;;;1.55;0.73;;;;;;;21.62;54.57;102545.19;6206760;28;20059;-78
2021/08/24 13:08:28;;;;;;;0.77;0.50;;;;;;;21.90;53.30;102532.47;6203712;28;20493;-78
2021/08/24 13:11:39;;;;;;;1.10;0.80;;;;;;;22.11;48.73;102525.53;6236498;28;20531;-78
2021/08/24 13:14:44;;;;;;;1.27;0.77;;;;;;;21.98;49.83;102522.94;6242051;28;20053;-78
2021/08/24 13:17:48;;;;;;;1.30;0.73;;;;;;;21.81;47.39;102525.13;6221425;28;20425;-78
2021/08/24 13:20:50;;;;;;;1.42;0.60;;;;;;;21.49;53.22;102537.16;6212366;28;20057;-78
2021/08/24 13:23:55;;;;;;;1.85;0.88;;;;;;;21.64;50.95;102534.34;6207237;28;20045;-78
2021/08/24 13:27:02;;;;;;;1.65;0.80;;;;;;;21.65;48.04;102544.94;6230660;28;20045;-79
2021/08/24 13:30:06;;;;;;;1.70;0.70;;;;;;;21.53;47.22;102533.31;6199681;28;20046;-79
2021/08/24 13:33:15;;;;;;;1.33;0.75;;;;;;;21.68;49.52;102530.50;6199517;28;20043;-78
2021/08/24 13:36:22;;;;;;;1.52;0.60;;;;;;;21.88;51.46;102527.22;6199818;28;20137;-79
2021/08/24 13:39:24;;;;;;;1.33;0.68;;;;;;;21.71;50.19;102528.47;6199810;28;20489;-78
2021/08/24 13:42:26;;;;;;;6.47;0.90;;;;;;;21.47;49.68;102531.06;6200880;28;20074;-79
2021/08/24 13:45:32;;;;;;;3.40;1.17;;;;;;;21.51;46.37;102534.38;6232336;28;20049;-79
2021/08/24 13:48:35;;;;;;;1.42;1.02;;;;;;;21.53;52.07;102537.81;6212536;28;20049;-81
2021/08/24 13:51:48;;;;;;;3.33;1.17;;;;;;;21.80;52.89;102532.28;6206257;28;20046;-79
2021/08/24 13:54:53;;;;;;;2.97;1.10;;;;;;;22.10;47.75;102520.28;6199090;28;20425;-79
2021/08/24 13:57:56;;;;;;;1.83;1.00;;;;;;;22.06;46.80;102518.81;6199049;28;20513;-78
2021/08/24 14:01:04;;;;;;;2.80;1.00;;;;;;;21.86;47.89;102517.59;6212458;28;20057;-78
2021/08/24 14:04:09;;;;;;;1.35;0.73;;;;;;;21.88;47.39;102515.66;6223006;28;20505;-79
2021/08/24 14:07:17;;;;;;;1.35;0.95;;;;;;;21.87;47.76;102520.16;6224545;28;20428;-78
2021/08/24 14:10:22;;;;;;;2.33;0.88;;;;;;;21.96;49.47;102522.16;6223517;28;20053;-79
2021/08/24 14:13:25;;;;;;;1.38;0.77;;;;;;;22.29;45.89;102512.63;6222863;28;20056;-81
2021/08/24 14:16:31;;;;;;;5.28;2.63;;;;;;;22.52;46.90;102524.28;6223367;28;20057;-80
2021/08/24 14:19:34;;;;;;;1.85;0.88;;;;;;;22.53;42.46;102518.84;6223522;28;20061;-78